Airport Information

METAR/TAF »

TAF 17.08.2018

TAF EGTC 171356Z 1715/1718 25008KT 9999 SCT025

METAR 17.08.2018

EGTC 171620Z 26012KT 9999 FEW046 21/10 Q1018

Airport Information

Runway Information

Runway TORA TODA ASDA LDA
21 1799m 1799m 1799m 1594m
03 1672m 1799m 1672m 1672m

Nav Aids

  • ILS
  • NDB
  • GNSS
  • DME

Opening Hours

  • 24 hour Availability (Subject to prior notice and availability of ATC/RFFS. Fees will apply.)

PPR required.

  • Monday to Friday - 08:00 to 18:30 local time. There will, on occasion, be restrictions to our opening hours and these restrictions will be notified by NOTAM. 

  • Saturday, Sunday, Public Holiday - 09:00 to 18:00 local time.

Please check again for updates or contact us on telephone: + 44 (0) 1234 758150 or email : airport@cranfield.ac.uk

General Information

  • Fire Category - RFF Category 2, with up to RFF Category 6 on request.
  • Fuel - Jet A1 and Avgas.
  • Handling Services - full range available if required.
  • Winter operation capability.
  • Car parking - free and secure.
  • Frequencies : Departure ATIS 121.880 / Approach 122.855 / Tower 134.930
  • ICAO Code : EGTC